Time;durP1;ratioP1;P1;durP2;ratioP2;P2;SDS_P1;SDS_P2;PMS_P1;PMS_P2;Temp;Humidity;BMP_temperature;BMP_pressure;BME280_temperature;BME280_humidity;BME280_pressure;Samples;Min_cycle;Max_cycle;Signal;HPM_P1;HPM_P2
2023/03/10 00:00:42;;;;;;;21.05;16.48;;;;;;;5.95;100.00;98625.72;5014349;28;20101;-39
2023/03/10 00:03:07;;;;;;;21.35;16.67;;;;;;;5.90;100.00;98614.91;5014612;28;20038;-39
2023/03/10 00:05:33;;;;;;;20.75;16.30;;;;;;;5.90;100.00;98614.91;5014514;28;20034;-38
2023/03/10 00:07:58;;;;;;;21.50;16.60;;;;;;;5.87;100.00;98619.13;5014477;28;20034;-39
2023/03/10 00:10:24;;;;;;;21.30;16.17;;;;;;;5.84;100.00;98611.53;5014444;28;20026;-39
2023/03/10 00:12:49;;;;;;;20.92;16.52;;;;;;;5.82;100.00;98615.75;5014448;28;20034;-39
2023/03/10 00:15:14;;;;;;;19.67;15.73;;;;;;;5.79;100.00;98617.22;5014274;28;20037;-39
2023/03/10 00:17:40;;;;;;;21.35;16.48;;;;;;;5.77;100.00;98625.75;5014045;28;20496;-39
2023/03/10 00:20:10;;;;;;;19.52;15.88;;;;;;;5.71;100.00;98635.31;5014091;28;20029;-39
2023/03/10 00:22:35;;;;;;;19.77;16.02;;;;;;;5.69;100.00;98636.78;5014303;28;20061;-39
2023/03/10 00:25:01;;;;;;;20.98;16.35;;;;;;;5.65;100.00;98628.41;5014290;28;20060;-39
2023/03/10 00:27:26;;;;;;;20.35;15.95;;;;;;;5.61;100.00;98631.00;5014071;28;20033;-38
2023/03/10 00:29:51;;;;;;;20.48;16.45;;;;;;;5.58;100.00;98625.34;5013921;28;20505;-39
2023/03/10 00:32:17;;;;;;;20.50;16.38;;;;;;;5.55;100.00;98626.03;5013745;28;20026;-39
2023/03/10 00:34:42;;;;;;;20.52;16.00;;;;;;;5.53;100.00;98631.81;5013746;28;20109;-39
2023/03/10 00:37:08;;;;;;;20.85;16.20;;;;;;;5.53;100.00;98631.03;5013874;28;20493;-40
2023/03/10 00:39:34;;;;;;;21.63;16.88;;;;;;;5.51;100.00;98622.31;5013775;28;20544;-39
2023/03/10 00:41:59;;;;;;;21.10;16.13;;;;;;;5.47;100.00;98625.72;5013675;28;20097;-39
2023/03/10 00:44:24;;;;;;;20.77;16.15;;;;;;;5.48;100.00;98618.28;5013656;28;20026;-39
2023/03/10 00:46:50;;;;;;;20.92;16.27;;;;;;;5.47;100.00;98622.16;5009479;28;20405;-40
2023/03/10 00:49:16;;;;;;;24.15;19.27;;;;;;;5.46;100.00;98626.84;5011773;28;20029;-40
2023/03/10 00:51:41;;;;;;;21.80;16.98;;;;;;;5.45;100.00;98625.25;5013556;28;20518;-40
2023/03/10 00:54:06;;;;;;;22.20;17.40;;;;;;;5.44;100.00;98628.28;5013613;28;20049;-40
2023/03/10 00:56:32;;;;;;;22.17;17.45;;;;;;;5.42;100.00;98625.09;5013570;28;20030;-40
2023/03/10 00:58:59;;;;;;;21.30;16.75;;;;;;;5.43;100.00;98632.19;5013416;28;20018;-40
2023/03/10 01:01:38;;;;;;;21.25;16.45;;;;;;;5.41;100.00;98632.50;5013271;28;20037;-39
2023/03/10 01:04:10;;;;;;;21.17;16.75;;;;;;;5.44;100.00;98631.03;5013600;28;20034;-40
2023/03/10 01:06:35;;;;;;;21.17;17.58;;;;;;;5.41;100.00;98637.97;5013476;28;20035;-39
2023/03/10 01:09:02;;;;;;;20.98;16.73;;;;;;;5.41;100.00;98637.97;5013762;28;20028;-40
2023/03/10 01:11:28;;;;;;;20.77;16.70;;;;;;;5.42;100.00;98625.88;5013180;28;20038;-39
2023/03/10 01:14:00;;;;;;;21.33;17.00;;;;;;;5.43;100.00;98626.69;5013296;28;20041;-41
2023/03/10 01:16:26;;;;;;;21.38;17.67;;;;;;;5.44;100.00;98633.78;5013185;28;20404;-39
2023/03/10 01:18:52;;;;;;;22.63;17.40;;;;;;;5.46;100.00;98626.84;5013181;28;20026;-39
2023/03/10 01:21:21;;;;;;;22.02;16.98;;;;;;;5.43;100.00;98616.53;5013091;28;20033;-39
2023/03/10 01:23:47;;;;;;;21.80;17.17;;;;;;;5.53;100.00;98614.56;5013116;28;20030;-39
2023/03/10 01:26:12;;;;;;;23.25;17.60;;;;;;;5.54;100.00;98618.91;5012821;28;20362;-39
2023/03/10 01:28:37;;;;;;;21.40;16.83;;;;;;;5.54;100.00;98611.47;5012917;28;20412;-40
2023/03/10 01:31:06;;;;;;;22.85;17.45;;;;;;;5.54;100.00;98610.69;5013051;28;20469;-40
2023/03/10 01:33:38;;;;;;;21.67;17.25;;;;;;;5.54;100.00;98600.50;5011481;28;20026;-40
2023/03/10 01:36:12;;;;;;;22.75;17.80;;;;;;;5.48;100.00;98596.34;5012984;28;20437;-40
2023/03/10 01:38:37;;;;;;;;;;;;;;;5.64;100.00;98596.63;5012014;28;20026;-39
2023/03/10 01:41:03;;;;;;;21.80;17.33;;;;;;;5.61;100.00;98602.75;5012694;28;19924;-40
2023/03/10 01:43:32;;;;;;;23.10;17.90;;;;;;;5.55;100.00;98591.16;5008793;28;20034;-41
2023/03/10 01:46:00;;;;;;;23.60;18.33;;;;;;;5.61;100.00;98597.28;5011408;28;20461;-40
2023/03/10 01:48:29;;;;;;;22.48;17.77;;;;;;;5.58;100.00;98584.19;5012124;28;20030;-40
2023/03/10 01:50:55;;;;;;;22.55;17.85;;;;;;;5.62;100.00;98583.22;5012667;28;20042;-40
2023/03/10 01:53:21;;;;;;;24.02;18.73;;;;;;;5.66;100.00;98583.38;5012564;28;20080;-40
2023/03/10 01:56:02;;;;;;;22.58;18.33;;;;;;;5.67;100.00;98584.97;5012784;28;20041;-40
2023/03/10 01:58:34;;;;;;;24.08;18.10;;;;;;;5.69;100.00;98574.47;5012803;28;20030;-40
2023/03/10 02:00:59;;;;;;;22.92;18.30;;;;;;;5.71;100.00;98571.44;5020928;28;20404;-40
2023/03/10 02:03:35;;;;;;;23.25;18.50;;;;;;;5.72;100.00;98557.38;5032654;28;20060;-40
2023/03/10 02:06:07;;;;;;;24.05;18.50;;;;;;;5.78;100.00;98558.00;5032656;28;20452;-40
2023/03/10 02:08:36;;;;;;;24.27;19.15;;;;;;;5.79;100.00;98551.38;5032501;28;20041;-40
2023/03/10 02:11:02;;;;;;;23.42;18.48;;;;;;;5.87;100.00;98572.47;5032584;28;20029;-41
2023/03/10 02:13:28;;;;;;;23.33;18.08;;;;;;;5.94;100.00;98566.47;5032658;28;20025;-41
2023/03/10 02:15:53;;;;;;;23.35;18.77;;;;;;;6.04;100.00;98573.53;5032050;28;20036;-40
2023/03/10 02:18:21;;;;;;;24.42;18.27;;;;;;;6.09;100.00;98571.41;5032288;28;20030;-41
2023/03/10 02:21:21;;;;;;;23.58;18.23;;;;;;;6.18;100.00;98570.56;5032436;28;20083;-41
2023/03/10 02:23:58;;;;;;;24.10;18.55;;;;;;;6.29;100.00;98571.78;5032094;28;20453;-41
2023/03/10 02:26:33;;;;;;;22.73;18.08;;;;;;;6.37;100.00;98562.69;5032149;28;20033;-41
2023/03/10 02:29:02;;;;;;;23.60;18.48;;;;;;;6.42;100.00;98556.19;5031843;28;20029;-41
2023/03/10 02:31:28;;;;;;;24.92;18.63;;;;;;;6.53;100.00;98551.06;5031918;28;20446;-40
2023/03/10 02:33:54;;;;;;;23.20;18.10;;;;;;;6.60;100.00;98556.03;5030443;28;20029;-42
2023/03/10 02:36:22;;;;;;;23.58;18.30;;;;;;;6.62;100.00;98545.53;5031983;28;20053;-41
2023/03/10 02:38:48;;;;;;;23.38;18.30;;;;;;;6.73;100.00;98543.97;5025487;28;20546;-41
2023/03/10 02:41:32;;;;;;;22.88;17.75;;;;;;;6.75;100.00;98530.72;5031536;28;20029;-42
2023/03/10 02:44:00;;;;;;;24.92;18.10;;;;;;;6.82;100.00;98536.47;5031921;28;20029;-40
2023/03/10 02:46:26;;;;;;;22.45;17.45;;;;;;;6.93;100.00;98534.09;5031929;28;20030;-40
2023/03/10 02:48:52;;;;;;;21.88;17.95;;;;;;;7.00;100.00;98536.28;5030539;28;20071;-41
2023/03/10 02:51:24;;;;;;;21.90;16.70;;;;;;;6.90;100.00;98500.97;5031859;28;20033;-41
2023/03/10 02:53:50;;;;;;;22.50;17.67;;;;;;;7.13;100.00;98521.41;5019229;28;20033;-41
2023/03/10 02:56:16;;;;;;;22.65;17.08;;;;;;;7.20;100.00;98515.34;5011915;28;20030;-41
2023/03/10 02:58:41;;;;;;;22.88;17.55;;;;;;;7.23;100.00;98516.63;5011916;28;20094;-41
2023/03/10 03:01:06;;;;;;;23.08;17.38;;;;;;;7.23;100.00;98516.63;5010406;28;20046;-41
2023/03/10 03:03:32;;;;;;;22.13;17.08;;;;;;;7.30;100.00;98519.63;5011839;28;20092;-40
2023/03/10 03:05:58;;;;;;;22.35;16.95;;;;;;;7.35;100.00;98519.41;5011819;28;20113;-41
2023/03/10 03:08:24;;;;;;;22.60;17.40;;;;;;;7.40;100.00;98518.38;5011884;28;20120;-40
2023/03/10 03:10:49;;;;;;;22.55;17.55;;;;;;;7.43;100.00;98509.44;5011709;28;20068;-40
2023/03/10 03:13:15;;;;;;;22.63;17.02;;;;;;;7.45;100.00;98505.19;5011752;28;20037;-41
2023/03/10 03:15:40;;;;;;;22.42;17.05;;;;;;;7.48;100.00;98498.19;5011722;28;20088;-41
2023/03/10 03:18:06;;;;;;;24.25;17.17;;;;;;;7.51;100.00;98499.50;5011715;28;20435;-41
2023/03/10 03:20:34;;;;;;;21.80;16.55;;;;;;;7.54;100.00;98498.78;5011743;28;20045;-41
2023/03/10 03:23:00;;;;;;;22.98;16.85;;;;;;;7.53;100.00;98500.75;5005034;28;20049;-41
2023/03/10 03:25:27;;;;;;;21.88;17.10;;;;;;;7.55;100.00;98503.16;5010269;28;20122;-38
2023/03/10 03:27:53;;;;;;;21.98;16.38;;;;;;;7.56;100.00;98502.78;5013608;28;20026;-39
2023/03/10 03:30:24;;;;;;;22.67;16.33;;;;;;;7.57;100.00;98498.91;5014960;28;20045;-38
2023/03/10 03:32:50;;;;;;;23.77;16.70;;;;;;;7.51;100.00;98497.53;5015140;28;20029;-38
2023/03/10 03:35:23;;;;;;;22.02;17.50;;;;;;;7.53;100.00;98497.16;5015189;28;20026;-38
2023/03/10 03:37:49;;;;;;;21.17;16.30;;;;;;;7.55;100.00;98497.63;5015658;28;20041;-38
2023/03/10 03:40:14;;;;;;;21.52;16.75;;;;;;;7.56;100.00;98502.00;5014898;28;20038;-38
2023/03/10 03:42:44;;;;;;;22.33;17.13;;;;;;;7.56;100.00;98494.53;5014977;28;20033;-39
2023/03/10 03:45:12;;;;;;;22.38;17.30;;;;;;;7.54;100.00;98499.59;5014826;28;20044;-39
2023/03/10 03:47:37;;;;;;;21.98;16.90;;;;;;;7.56;100.00;98497.28;5014970;28;20037;-38
2023/03/10 03:50:04;;;;;;;22.15;16.52;;;;;;;7.53;100.00;98491.66;5015361;28;20046;-38
2023/03/10 03:52:30;;;;;;;24.90;16.48;;;;;;;7.56;100.00;98493.75;5034624;28;20032;-38
2023/03/10 03:54:56;;;;;;;22.98;17.45;;;;;;;7.56;100.00;98493.75;5034591;28;20033;-38
2023/03/10 03:57:21;;;;;;;21.77;16.45;;;;;;;7.53;100.00;98494.41;5034603;28;20021;-40
2023/03/10 03:59:46;;;;;;;24.00;17.15;;;;;;;7.52;100.00;98487.31;5034077;28;20045;-39
2023/03/10 04:02:12;;;;;;;22.23;16.40;;;;;;;7.55;100.00;98486.63;5034468;28;20659;-39
2023/03/10 04:04:37;;;;;;;21.85;17.10;;;;;;;7.56;100.00;98486.28;5033730;28;20048;-39
2023/03/10 04:07:03;;;;;;;22.98;16.55;;;;;;;7.56;100.00;98494.53;5034403;28;20029;-40
2023/03/10 04:09:28;;;;;;;21.75;16.70;;;;;;;7.59;100.00;98487.56;5034014;28;20036;-40
2023/03/10 04:11:53;;;;;;;21.23;15.93;;;;;;;7.60;100.00;98489.97;5034302;28;20021;-40
2023/03/10 04:14:19;;;;;;;21.38;16.20;;;;;;;7.62;100.00;98482.16;5032901;28;20499;-40
2023/03/10 04:16:44;;;;;;;21.30;15.13;;;;;;;7.67;100.00;98485.81;5034040;28;20475;-40
2023/03/10 04:19:10;;;;;;;21.42;15.40;;;;;;;7.70;100.00;98483.19;5027316;28;20143;-40
2023/03/10 04:21:35;;;;;;;21.42;15.35;;;;;;;7.75;100.00;98479.41;5034142;28;20034;-41
2023/03/10 04:24:01;;;;;;;21.10;15.07;;;;;;;7.77;100.00;98483.44;5034033;28;20033;-40
2023/03/10 04:26:27;;;;;;;21.10;15.40;;;;;;;7.80;100.00;98481.94;5032551;28;20025;-39
2023/03/10 04:28:53;;;;;;;20.13;15.20;;;;;;;7.85;100.00;98484.44;5033983;28;20379;-40
2023/03/10 04:31:18;;;;;;;20.35;14.48;;;;;;;7.87;100.00;98482.16;5033649;28;20499;-41
2023/03/10 04:33:44;;;;;;;21.75;15.25;;;;;;;7.90;100.00;98480.66;5033476;28;20053;-40
2023/03/10 04:36:09;;;;;;;20.10;14.40;;;;;;;7.91;100.00;98482.25;5033765;28;20377;-40
2023/03/10 04:38:35;;;;;;;22.15;15.32;;;;;;;7.92;100.00;98481.94;5033312;28;20033;-40
2023/03/10 04:41:01;;;;;;;22.60;15.07;;;;;;;7.93;100.00;98478.03;5033674;28;20430;-40
2023/03/10 04:43:27;;;;;;;20.10;14.63;;;;;;;7.94;100.00;98474.09;5033503;28;20112;-40
2023/03/10 04:45:52;;;;;;;22.08;14.88;;;;;;;7.97;100.00;98467.13;5033551;28;20819;-40
2023/03/10 04:48:18;;;;;;;21.25;15.05;;;;;;;7.96;100.00;98469.06;5033455;28;20030;-40
2023/03/10 04:50:43;;;;;;;19.80;14.60;;;;;;;7.97;100.00;98469.88;5033350;28;20370;-41
2023/03/10 04:53:08;;;;;;;21.42;14.85;;;;;;;7.98;100.00;98463.22;5032907;28;20482;-41
2023/03/10 04:55:34;;;;;;;22.58;16.08;;;;;;;7.97;100.00;98462.41;5033536;28;20408;-41
2023/03/10 04:57:59;;;;;;;22.27;15.90;;;;;;;7.96;100.00;98462.75;5028819;28;20037;-38
2023/03/10 05:00:25;;;;;;;21.60;14.85;;;;;;;7.97;100.00;98461.59;5032667;28;20172;-39
2023/03/10 05:02:50;;;;;;;21.45;14.95;;;;;;;7.93;100.00;98456.00;5033145;28;20028;-39
2023/03/10 05:05:16;;;;;;;20.33;14.65;;;;;;;7.96;100.00;98462.75;5013840;28;20037;-40
2023/03/10 05:07:42;;;;;;;22.05;14.23;;;;;;;7.95;100.00;98458.41;5013197;28;20030;-40
2023/03/10 05:10:08;;;;;;;19.65;14.35;;;;;;;7.94;100.00;98465.06;5013253;28;20451;-39
2023/03/10 05:12:34;;;;;;;21.20;14.20;;;;;;;7.93;100.00;98464.25;5013219;28;20030;-39
2023/03/10 05:14:59;;;;;;;21.58;14.10;;;;;;;7.93;100.00;98456.00;5006364;28;20022;-39
2023/03/10 05:17:26;;;;;;;20.95;14.27;;;;;;;7.91;100.00;98450.03;5013003;28;20034;-39
2023/03/10 05:19:51;;;;;;;20.90;14.90;;;;;;;7.93;100.00;98460.69;5013366;28;20030;-39
2023/03/10 05:22:17;;;;;;;23.17;16.00;;;;;;;7.90;100.00;98447.59;5012837;28;20026;-39
2023/03/10 05:24:42;;;;;;;19.85;14.63;;;;;;;7.95;100.00;98450.94;5013033;28;20532;-40
2023/03/10 05:27:09;;;;;;;21.70;14.75;;;;;;;7.97;100.00;98450.59;5011484;28;20026;-39
2023/03/10 05:29:37;;;;;;;21.73;14.57;;;;;;;7.97;100.00;98448.63;5012888;28;20049;-39
2023/03/10 05:32:03;;;;;;;20.70;14.43;;;;;;;7.96;100.00;98446.25;5012864;28;20028;-39
2023/03/10 05:34:29;;;;;;;21.17;14.60;;;;;;;7.91;100.00;98439.03;5012508;28;20112;-40
2023/03/10 05:36:55;;;;;;;19.63;14.25;;;;;;;7.96;100.00;98451.75;5012865;28;20535;-39
2023/03/10 05:39:20;;;;;;;20.23;14.50;;;;;;;7.94;100.00;98454.81;5012776;28;20033;-39
2023/03/10 05:41:45;;;;;;;21.00;14.60;;;;;;;7.93;100.00;98447.75;5012764;28;20026;-39
2023/03/10 05:44:11;;;;;;;22.30;14.85;;;;;;;7.87;100.00;98446.34;5012781;28;20022;-39
2023/03/10 05:46:36;;;;;;;23.38;14.20;;;;;;;7.92;100.00;98457.16;5012636;28;20385;-39
2023/03/10 05:49:01;;;;;;;21.35;14.02;;;;;;;7.94;100.00;98467.81;5012477;28;20107;-40
2023/03/10 05:51:27;;;;;;;21.50;14.35;;;;;;;7.94;100.00;98463.09;5012088;28;20038;-39
2023/03/10 05:53:52;;;;;;;22.52;14.90;;;;;;;7.95;100.00;98461.94;5012790;28;20030;-39
2023/03/10 05:56:18;;;;;;;27.20;14.85;;;;;;;7.95;100.00;98470.19;5012579;28;20049;-39
2023/03/10 05:58:45;;;;;;;23.45;14.88;;;;;;;7.95;100.00;98464.69;5012547;28;20084;-39
2023/03/10 06:01:10;;;;;;;23.60;14.68;;;;;;;7.96;100.00;98462.75;5012262;28;20128;-40
2023/03/10 06:03:37;;;;;;;21.10;13.95;;;;;;;7.98;100.00;98460.47;5012200;28;20556;-39
2023/03/10 06:06:05;;;;;;;22.02;14.50;;;;;;;7.98;100.00;98457.72;5012379;28;20128;-39
2023/03/10 06:08:32;;;;;;;20.85;14.40;;;;;;;7.98;100.00;98465.97;5011145;28;20109;-40
2023/03/10 06:10:57;;;;;;;23.45;14.73;;;;;;;7.99;100.00;98464.78;5006170;28;20061;-39
2023/03/10 06:13:24;;;;;;;21.75;14.38;;;;;;;7.96;100.00;98449.00;5012337;28;20061;-40
2023/03/10 06:15:54;;;;;;;23.27;14.60;;;;;;;8.02;100.00;98455.84;5012266;28;20037;-39
2023/03/10 06:18:20;;;;;;;22.92;14.43;;;;;;;8.04;100.00;98463.75;5012516;28;20045;-40
2023/03/10 06:20:47;;;;;;;21.73;14.20;;;;;;;8.03;100.00;98459.41;5010622;28;20026;-40
2023/03/10 06:23:13;;;;;;;22.30;13.93;;;;;;;8.09;100.00;98469.03;5012189;28;20488;-40
2023/03/10 06:25:39;;;;;;;23.65;14.35;;;;;;;8.11;100.00;98475.00;5012217;28;20026;-39
2023/03/10 06:28:04;;;;;;;22.75;14.35;;;;;;;8.03;100.00;98459.41;5011989;28;20080;-40
2023/03/10 06:30:30;;;;;;;22.15;14.45;;;;;;;8.14;100.00;98474.28;5012046;28;20034;-42
2023/03/10 06:32:55;;;;;;;22.60;14.93;;;;;;;8.13;100.00;98475.44;5011874;28;20054;-39
2023/03/10 06:35:20;;;;;;;23.20;14.43;;;;;;;8.12;100.00;98469.13;5011939;28;20437;-39
2023/03/10 06:37:45;;;;;;;23.60;14.70;;;;;;;8.14;100.00;98477.03;5011912;28;20108;-40
2023/03/10 06:40:13;;;;;;;21.52;14.50;;;;;;;8.13;100.00;98475.44;5011937;28;20025;-39
2023/03/10 06:42:42;;;;;;;23.35;14.68;;;;;;;8.13;100.00;98478.19;5012010;28;20034;-39
2023/03/10 06:45:09;;;;;;;23.73;14.32;;;;;;;8.14;100.00;98484.50;5011968;28;20068;-40
2023/03/10 06:47:35;;;;;;;22.52;14.88;;;;;;;8.11;100.00;98477.75;5011863;28;20038;-40
2023/03/10 06:50:01;;;;;;;23.52;14.30;;;;;;;8.13;100.00;98480.94;5011709;28;20108;-40
2023/03/10 06:52:26;;;;;;;22.02;14.10;;;;;;;8.18;100.00;98490.91;5011868;28;20041;-39
2023/03/10 06:54:51;;;;;;;23.52;14.35;;;;;;;8.21;100.00;98490.22;5011447;28;20492;-40
2023/03/10 06:57:17;;;;;;;21.13;13.88;;;;;;;8.19;100.00;98487.00;5011746;28;20030;-40
2023/03/10 06:59:42;;;;;;;23.88;14.65;;;;;;;8.27;100.00;98499.84;5011700;28;20054;-40
2023/03/10 07:02:11;;;;;;;23.80;14.25;;;;;;;8.31;100.00;98497.22;5014201;28;20025;-44
2023/03/10 07:04:36;;;;;;;24.38;14.73;;;;;;;8.34;100.00;98508.34;5015737;28;20088;-40
2023/03/10 07:07:02;;;;;;;23.15;14.30;;;;;;;8.34;100.00;98496.50;5015594;28;20487;-41
2023/03/10 07:09:27;;;;;;;21.88;14.18;;;;;;;8.36;100.00;98489.50;5015533;28;20079;-40
2023/03/10 07:11:52;;;;;;;23.33;14.38;;;;;;;8.36;100.00;98492.25;5010738;28;20485;-40
2023/03/10 07:14:18;;;;;;;21.05;13.95;;;;;;;8.35;100.00;98487.09;5013563;28;20120;-40
2023/03/10 07:16:45;;;;;;;19.80;13.88;;;;;;;8.34;100.00;98489.06;5015405;28;20033;-40
2023/03/10 07:19:10;;;;;;;21.02;14.15;;;;;;;8.36;100.00;98492.25;5014624;28;20026;-40
2023/03/10 07:21:36;;;;;;;22.02;13.70;;;;;;;8.38;100.00;98497.41;5013800;28;20032;-40
2023/03/10 07:24:01;;;;;;;21.55;13.75;;;;;;;8.39;100.00;98496.28;5015228;28;20036;-40
2023/03/10 07:26:26;;;;;;;22.98;14.30;;;;;;;8.39;100.00;98501.78;5014993;28;20025;-40
2023/03/10 07:28:53;;;;;;;21.23;13.88;;;;;;;8.38;100.00;98505.69;5015226;28;20028;-40
2023/03/10 07:31:18;;;;;;;19.77;13.73;;;;;;;8.37;100.00;98513.13;5015034;28;20038;-40
2023/03/10 07:33:43;;;;;;;19.23;13.23;;;;;;;8.37;100.00;98513.13;5014974;28;20033;-40
2023/03/10 07:36:14;;;;;;;21.38;13.43;;;;;;;8.40;100.00;98509.69;5014665;28;20479;-40
2023/03/10 07:38:40;;;;;;;21.00;14.48;;;;;;;8.37;100.00;98507.63;5014794;28;20398;-39
2023/03/10 07:41:12;;;;;;;20.90;14.00;;;;;;;8.43;100.00;98519.22;5014592;28;20508;-40
2023/03/10 07:43:37;;;;;;;22.90;14.82;;;;;;;8.45;100.00;98524.38;5014644;28;20029;-40
2023/03/10 07:46:07;;;;;;;22.73;15.23;;;;;;;8.49;100.00;98520.63;5014702;28;20073;-40
2023/03/10 07:48:33;;;;;;;23.83;14.20;;;;;;;8.54;100.00;98517.59;5014588;28;20029;-41
2023/03/10 07:50:59;;;;;;;21.83;15.30;;;;;;;8.59;100.00;98519.31;5014497;28;20552;-40
2023/03/10 07:53:25;;;;;;;21.65;15.38;;;;;;;8.64;100.00;98532.84;5014649;28;20037;-41
2023/03/10 07:55:51;;;;;;;23.60;15.95;;;;;;;8.70;100.00;98522.34;5014507;28;20065;-41
2023/03/10 07:58:17;;;;;;;24.08;16.60;;;;;;;8.76;100.00;98537.50;5014761;28;20058;-40
2023/03/10 08:00:42;;;;;;;24.10;17.08;;;;;;;8.86;100.00;98525.16;5014201;28;20046;-41
2023/03/10 08:03:07;;;;;;;27.70;18.00;;;;;;;8.93;100.00;98521.81;5014366;28;20236;-40
2023/03/10 08:05:32;;;;;;;26.25;17.45;;;;;;;8.99;100.00;98518.47;5014398;28;20390;-41
2023/03/10 08:07:58;;;;;;;27.25;18.75;;;;;;;8.98;100.00;98519.59;5006628;28;20041;-40
2023/03/10 08:10:23;;;;;;;27.48;19.95;;;;;;;9.02;100.00;98525.22;5012851;28;20030;-41
2023/03/10 08:12:49;;;;;;;26.80;19.33;;;;;;;9.04;100.00;98525.66;5011524;28;20030;-40
2023/03/10 08:15:15;;;;;;;25.35;18.75;;;;;;;9.09;100.00;98525.41;5012306;28;20493;-40
2023/03/10 08:17:40;;;;;;;27.25;19.45;;;;;;;9.10;100.00;98524.25;5012280;28;20033;-41
2023/03/10 08:20:06;;;;;;;27.13;19.50;;;;;;;9.17;100.00;98527.19;5012164;28;20030;-41
2023/03/10 08:22:32;;;;;;;24.42;18.38;;;;;;;9.25;100.00;98530.16;5011882;28;20038;-41
2023/03/10 08:24:58;;;;;;;24.70;18.20;;;;;;;9.30;100.00;98524.38;5011806;28;20049;-41
2023/03/10 08:27:24;;;;;;;28.65;18.95;;;;;;;9.37;100.00;98530.06;5011699;28;20042;-41
2023/03/10 08:29:50;;;;;;;25.98;19.15;;;;;;;9.43;100.00;98531.41;5010082;28;20444;-41
2023/03/10 08:32:15;;;;;;;25.08;19.55;;;;;;;9.47;100.00;98529.53;5016225;28;20041;-41
2023/03/10 08:34:41;;;;;;;28.38;20.02;;;;;;;9.54;100.00;98531.69;5030725;28;20041;-41
2023/03/10 08:37:07;;;;;;;24.50;18.70;;;;;;;9.57;100.00;98530.16;5014971;28;20026;-41
2023/03/10 08:39:33;;;;;;;24.48;17.13;;;;;;;9.60;100.00;98530.25;5013754;28;20393;-41
2023/03/10 08:41:59;;;;;;;23.05;14.88;;;;;;;9.61;100.00;98531.06;5013758;28;20033;-42
2023/03/10 08:44:24;;;;;;;23.15;13.55;;;;;;;9.73;100.00;98524.63;5013507;28;20021;-41
2023/03/10 08:46:49;;;;;;;21.27;13.25;;;;;;;9.77;100.00;98525.53;5013711;28;20030;-41
2023/03/10 08:49:17;;;;;;;21.67;13.68;;;;;;;9.80;100.00;98522.03;5012462;28;20054;-42
2023/03/10 08:51:43;;;;;;;25.02;13.60;;;;;;;9.81;100.00;98524.47;5011681;28;20026;-41
2023/03/10 08:54:10;;;;;;;20.48;13.10;;;;;;;9.82;100.00;98528.03;5011470;28;20032;-41
2023/03/10 08:56:35;;;;;;;21.23;13.43;;;;;;;9.91;100.00;98525.88;5011231;28;20278;-41
2023/03/10 08:59:01;;;;;;;20.20;12.82;;;;;;;9.93;100.00;98529.06;5011404;28;20037;-41
2023/03/10 09:01:31;;;;;;;21.55;12.98;;;;;;;10.01;100.00;98527.28;5011349;28;20029;-41
2023/03/10 09:03:57;;;;;;;20.95;13.02;;;;;;;10.06;100.00;98524.25;5012030;28;20045;-41
2023/03/10 09:06:23;;;;;;;21.27;13.07;;;;;;;10.11;100.00;98521.19;5013364;28;20117;-41
2023/03/10 09:08:49;;;;;;;20.63;13.10;;;;;;;10.20;100.00;98528.50;5013099;28;20105;-41
2023/03/10 09:11:30;;;;;;;22.23;13.48;;;;;;;10.10;100.00;98494.75;5013331;28;20062;-43
2023/03/10 09:13:56;;;;;;;21.83;13.20;;;;;;;10.31;100.00;98524.00;5013095;28;20061;-42
2023/03/10 09:16:22;;;;;;;21.48;12.82;;;;;;;10.33;100.00;98518.91;5013197;28;20022;-41
2023/03/10 09:18:47;;;;;;;22.40;13.23;;;;;;;10.31;100.00;98521.22;5011688;28;20440;-41
2023/03/10 09:21:15;;;;;;;21.05;13.15;;;;;;;10.33;100.00;98520.88;5011468;28;20026;-41
2023/03/10 09:23:43;;;;;;;21.20;13.27;;;;;;;10.26;100.00;98510.47;5013063;28;20489;-41
2023/03/10 09:26:08;;;;;;;22.40;13.20;;;;;;;10.30;100.00;98519.63;5012068;28;20484;-41
2023/03/10 09:28:34;;;;;;;19.98;12.80;;;;;;;10.29;100.00;98518.03;5012997;28;20072;-41
2023/03/10 09:30:59;;;;;;;22.95;13.98;;;;;;;10.29;100.00;98523.56;5012759;28;20080;-41
2023/03/10 09:33:24;;;;;;;21.70;13.85;;;;;;;10.28;100.00;98527.50;5013256;28;20030;-42
2023/03/10 09:35:50;;;;;;;20.42;13.18;;;;;;;10.28;100.00;98524.72;5012718;28;20030;-41
2023/03/10 09:38:16;;;;;;;21.58;13.13;;;;;;;10.28;100.00;98516.44;5012911;28;20446;-42
2023/03/10 09:40:46;;;;;;;23.00;13.27;;;;;;;10.29;100.00;98512.50;5012632;28;20076;-41
2023/03/10 09:43:18;;;;;;;20.98;13.43;;;;;;;10.30;100.00;98509.38;5012779;28;20597;-42
2023/03/10 09:46:17;;;;;;;21.17;13.30;;;;;;;10.33;100.00;98515.34;5012761;28;20448;-42
2023/03/10 09:49:24;;;;;;;20.38;13.25;;;;;;;10.36;100.00;98514.63;5012608;28;20448;-41
2023/03/10 09:51:50;;;;;;;20.80;12.63;;;;;;;10.32;100.00;98511.78;5012531;28;20119;-42
2023/03/10 09:54:36;;;;;;;20.23;12.75;;;;;;;10.35;100.00;98519.34;5012958;28;20052;-41
2023/03/10 09:57:14;;;;;;;22.05;12.90;;;;;;;10.38;100.00;98523.38;5012618;28;20540;-41
2023/03/10 09:59:43;;;;;;;20.45;12.60;;;;;;;10.39;100.00;98530.50;5012465;28;20069;-41
2023/03/10 10:02:37;;;;;;;21.00;12.98;;;;;;;10.43;100.00;98518.38;5012653;28;20046;-41
2023/03/10 10:05:17;;;;;;;19.77;12.98;;;;;;;10.52;100.00;98520.94;5010852;28;20409;-41
2023/03/10 10:07:50;;;;;;;21.35;12.88;;;;;;;10.55;100.00;98522.16;5011265;28;20033;-41
2023/03/10 10:10:23;;;;;;;19.67;12.85;;;;;;;10.62;100.00;98525.06;5011023;28;20033;-41
2023/03/10 10:12:51;;;;;;;20.63;12.98;;;;;;;10.58;100.00;98541.59;5012100;28;20034;-41
2023/03/10 10:15:22;;;;;;;20.90;13.25;;;;;;;10.51;100.00;98549.75;5011987;28;20176;-41
2023/03/10 10:18:32;;;;;;;21.40;13.07;;;;;;;10.45;100.00;98551.16;5012268;28;20022;-41
2023/03/10 10:21:04;;;;;;;18.88;12.57;;;;;;;10.26;100.00;98546.38;4951488;29;20556;-42
2023/03/10 10:23:41;;;;;;;18.83;12.35;;;;;;;10.21;100.00;98553.00;4951529;29;20050;-41
2023/03/10 10:26:12;;;;;;;20.02;12.82;;;;;;;10.13;100.00;98554.00;4989385;28;20472;-41
2023/03/10 10:28:40;;;;;;;18.88;12.55;;;;;;;10.10;100.00;98547.25;5012076;28;20473;-41
2023/03/10 10:31:21;;;;;;;18.63;12.50;;;;;;;10.07;100.00;98542.41;5012237;28;20037;-41
2023/03/10 10:33:59;;;;;;;18.90;12.15;;;;;;;10.12;100.00;98541.34;5011940;28;20034;-41
2023/03/10 10:36:49;;;;;;;20.48;13.35;;;;;;;10.19;100.00;98549.00;5013604;28;20038;-41
2023/03/10 10:39:39;;;;;;;18.08;12.40;;;;;;;10.18;100.00;98533.56;5016274;28;20037;-41
2023/03/10 10:42:27;;;;;;;20.25;12.90;;;;;;;10.31;100.00;98554.38;5016120;28;20053;-42
2023/03/10 10:44:57;;;;;;;19.92;12.63;;;;;;;10.30;100.00;98556.38;5008656;28;20315;-41
2023/03/10 10:47:29;;;;;;;21.85;12.90;;;;;;;10.26;100.00;98555.47;5015511;28;20080;-41
2023/03/10 10:50:15;;;;;;;19.98;12.43;;;;;;;10.26;100.00;98549.94;5015974;28;20485;-41
2023/03/10 10:52:41;;;;;;;20.15;12.80;;;;;;;10.23;100.00;98545.16;5015715;28;20034;-40
2023/03/10 10:55:25;;;;;;;19.92;12.70;;;;;;;10.28;100.00;98547.63;5014443;28;20378;-41
2023/03/10 10:57:58;;;;;;;;;;;;;;;10.34;100.00;98550.91;5016546;28;20022;-41
2023/03/10 11:00:29;;;;;;;19.70;13.47;;;;;;;10.32;100.00;98550.47;5015646;28;19917;-40
2023/03/10 11:02:55;;;;;;;21.08;13.48;;;;;;;10.27;100.00;98536.94;5014681;28;20037;-40
2023/03/10 11:05:31;;;;;;;19.63;13.32;;;;;;;10.33;100.00;98543.00;5013861;28;20034;-41
2023/03/10 11:08:16;;;;;;;20.83;13.68;;;;;;;10.33;100.00;98538.25;5006625;28;20152;-42
2023/03/10 11:10:45;;;;;;;21.77;13.52;;;;;;;10.39;100.00;98538.81;5012174;28;20032;-40
2023/03/10 11:13:33;;;;;;;19.65;13.30;;;;;;;10.44;100.00;98539.31;5013266;28;20034;-42
2023/03/10 11:16:25;;;;;;;21.30;13.45;;;;;;;10.47;100.00;98526.72;5013000;28;20065;-42
2023/03/10 11:18:58;;;;;;;18.50;12.85;;;;;;;10.49;100.00;98531.88;5013449;28;20033;-39
2023/03/10 11:21:33;;;;;;;18.65;12.75;;;;;;;10.53;100.00;98533.56;5013111;28;20026;-40